createdAt,value
2018-01-20T00:03:06.436Z,4.37
2018-01-20T00:08:08.507Z,4.35
2018-01-20T00:13:09.859Z,4.23
2018-01-20T00:18:11.196Z,4.27
2018-01-20T00:23:12.562Z,4.19
2018-01-20T00:28:13.948Z,4.17
2018-01-20T00:33:15.303Z,4.16
2018-01-20T00:38:17.381Z,4.26
2018-01-20T00:43:19.461Z,4.49
2018-01-20T00:48:20.787Z,4.51
2018-01-20T00:53:22.137Z,4.43
2018-01-20T00:58:23.459Z,4.39
2018-01-20T01:03:24.874Z,4.33
2018-01-20T01:08:26.976Z,4.29
2018-01-20T01:13:29.092Z,4.24
2018-01-20T01:18:30.404Z,4.44
2018-01-20T01:23:32.368Z,4.64
2018-01-20T01:28:33.691Z,4.61
2018-01-20T01:33:35.027Z,4.56
2018-01-20T01:38:36.432Z,4.50
2018-01-20T01:43:37.918Z,4.39
2018-01-20T01:48:39.411Z,4.37
2018-01-20T01:53:40.793Z,4.26
2018-01-20T01:58:42.182Z,4.26
2018-01-20T02:03:43.649Z,4.24
2018-01-20T02:08:45.105Z,4.23
2018-01-20T02:13:47.282Z,4.26
2018-01-20T02:18:48.792Z,4.41
2018-01-20T02:23:50.996Z,4.52
2018-01-20T02:28:52.385Z,4.56
2018-01-20T02:33:53.761Z,4.55
2018-01-20T02:38:55.134Z,4.77
2018-01-20T02:43:56.485Z,4.88
2018-01-20T02:48:57.843Z,4.92
2018-01-20T02:53:59.247Z,4.95
2018-01-20T02:59:01.302Z,5.14
2018-01-20T03:04:02.688Z,5.03
2018-01-20T03:09:04.099Z,5.08
2018-01-20T03:14:05.446Z,5.06
2018-01-20T03:19:06.794Z,5.17
2018-01-20T03:24:08.139Z,5.28
2018-01-20T03:29:09.546Z,5.34
2018-01-20T03:34:10.884Z,5.20
2018-01-20T03:39:12.941Z,5.28
2018-01-20T03:44:14.271Z,5.26
2018-01-20T03:49:15.606Z,5.22
2018-01-20T03:54:16.958Z,5.20
2018-01-20T03:59:19.045Z,5.21
2018-01-20T04:04:20.386Z,5.20
2018-01-20T04:09:21.737Z,5.32
2018-01-20T04:14:23.056Z,5.52
2018-01-20T04:19:25.152Z,5.48
2018-01-20T04:24:27.240Z,5.40
2018-01-20T04:29:28.551Z,5.34
2018-01-20T04:34:30.627Z,5.24
2018-01-20T04:39:31.987Z,5.23
2018-01-20T04:44:33.310Z,5.29
2018-01-20T04:49:34.628Z,5.35
2018-01-20T04:54:36.688Z,5.32
2018-01-20T04:59:38.008Z,5.28
2018-01-20T05:04:39.348Z,5.26
2018-01-20T05:09:40.696Z,5.20
2018-01-20T05:14:42.755Z,5.36
2018-01-20T05:19:44.087Z,5.46
2018-01-20T05:24:46.159Z,5.34
2018-01-20T05:29:47.497Z,5.49
2018-01-20T05:34:48.815Z,5.58
2018-01-20T05:39:50.157Z,5.43
2018-01-20T05:44:52.208Z,5.42
2018-01-20T05:49:53.723Z,5.50
2018-01-20T05:54:55.228Z,5.49
2018-01-20T05:59:56.687Z,5.43
2018-01-20T06:04:58.084Z,5.40
2018-01-20T06:09:59.397Z,5.51
2018-01-20T06:15:00.795Z,5.43
2018-01-20T06:20:02.651Z,5.52
2018-01-20T06:25:04.075Z,5.48
2018-01-20T06:30:05.420Z,5.57
2018-01-20T06:35:06.831Z,5.55
2018-01-20T06:40:08.141Z,5.60
2018-01-20T06:45:09.491Z,5.64
2018-01-20T06:50:10.859Z,5.71
2018-01-20T06:55:12.957Z,5.79
2018-01-20T07:00:14.515Z,5.80
2018-01-20T07:05:16.662Z,5.82
2018-01-20T07:10:18.345Z,5.76
2018-01-20T07:15:19.856Z,5.76
2018-01-20T07:20:21.592Z,5.88
2018-01-20T07:25:22.923Z,5.89
2018-01-20T07:30:24.278Z,5.88
2018-01-20T07:35:25.598Z,5.79
2018-01-20T07:40:27.031Z,5.84
2018-01-20T07:45:29.538Z,5.87
2018-01-20T07:50:31.964Z,5.90
2018-01-20T07:55:33.885Z,5.88
2018-01-20T08:00:35.835Z,6.12
2018-01-20T08:05:38.810Z,6.22
2018-01-20T08:10:40.748Z,6.18
2018-01-20T08:15:42.281Z,6.25
2018-01-20T08:20:44.669Z,6.36
2018-01-20T08:25:47.169Z,6.33
2018-01-20T08:30:49.755Z,6.29
2018-01-20T08:35:52.163Z,6.35
2018-01-20T08:40:54.074Z,6.46
2018-01-20T08:45:55.768Z,6.50
2018-01-20T08:50:57.897Z,6.61
2018-01-20T08:55:59.722Z,6.65
2018-01-20T09:01:01.101Z,6.62
2018-01-20T09:06:02.496Z,6.70
2018-01-20T09:11:03.870Z,6.66
2018-01-20T09:16:05.207Z,6.69
2018-01-20T09:21:06.539Z,6.66
2018-01-20T09:26:07.888Z,6.59
2018-01-20T09:31:09.212Z,6.63
2018-01-20T09:36:10.533Z,6.73
2018-01-20T09:41:11.899Z,6.88
2018-01-20T09:46:13.267Z,6.97
2018-01-20T09:51:15.368Z,6.83
2018-01-20T09:56:17.439Z,7.07
2018-01-20T10:01:19.413Z,7.14
2018-01-20T10:06:20.756Z,7.24
2018-01-20T10:11:22.826Z,7.32
2018-01-20T10:16:24.164Z,7.23
2018-01-20T10:21:26.243Z,7.20
2018-01-20T10:26:27.596Z,7.66
2018-01-20T10:31:28.933Z,7.69
2018-01-20T10:36:30.288Z,8.00
2018-01-20T10:41:31.622Z,7.93
2018-01-20T10:46:32.945Z,7.86
2018-01-20T10:51:34.270Z,7.75
2018-01-20T10:56:35.616Z,7.71
2018-01-20T11:01:37.760Z,7.70
2018-01-20T11:06:39.208Z,7.73
2018-01-20T11:11:40.572Z,7.99
2018-01-20T11:16:41.966Z,8.15
2018-01-20T11:21:43.336Z,8.36
2018-01-20T11:26:44.721Z,8.45
2018-01-20T11:31:46.133Z,8.41
2018-01-20T11:36:47.478Z,8.53
2018-01-20T11:41:48.837Z,8.59
2018-01-20T11:46:50.910Z,8.40
2018-01-20T11:51:52.227Z,8.44
2018-01-20T11:56:54.326Z,8.59
2018-01-20T12:01:56.408Z,8.62
2018-01-20T12:06:57.783Z,8.44
2018-01-20T12:11:59.124Z,8.35
2018-01-20T12:17:01.241Z,8.56
2018-01-20T12:22:02.638Z,8.60
2018-01-20T12:27:04.039Z,8.88
2018-01-20T12:32:05.391Z,8.89
2018-01-20T12:37:07.503Z,8.74
2018-01-20T12:42:09.617Z,8.60
2018-01-20T12:47:11.735Z,8.51
2018-01-20T12:52:13.186Z,8.59
2018-01-20T12:57:14.591Z,8.37
2018-01-20T13:02:16.212Z,8.45
2018-01-20T13:07:19.585Z,8.37
2018-01-20T13:12:21.746Z,8.39
2018-01-20T13:17:23.807Z,8.43
2018-01-20T13:22:25.317Z,8.38
2018-01-20T13:27:26.724Z,8.35
2018-01-20T13:32:28.046Z,8.33
2018-01-20T13:37:29.394Z,8.27
2018-01-20T13:42:37.584Z,8.30
2018-01-20T13:47:38.956Z,8.40
2018-01-20T13:52:40.345Z,8.56
2018-01-20T13:57:41.729Z,8.70
2018-01-20T14:02:43.071Z,8.75
2018-01-20T14:07:44.533Z,8.78
2018-01-20T14:12:45.876Z,8.78
2018-01-20T14:17:47.210Z,8.72
2018-01-20T14:22:49.330Z,8.66
2018-01-20T14:27:51.805Z,8.64
2018-01-20T14:32:53.164Z,8.57
2018-01-20T14:37:54.505Z,8.46
2018-01-20T14:42:55.823Z,8.35
2018-01-20T14:47:57.144Z,8.26
2018-01-20T14:52:58.480Z,8.17
2018-01-20T14:58:00.567Z,8.06
2018-01-20T15:03:01.936Z,8.01
2018-01-20T15:08:03.359Z,7.93
2018-01-20T15:13:04.757Z,7.77
2018-01-20T15:18:06.844Z,7.57
2018-01-20T15:23:08.185Z,7.39
2018-01-20T15:28:09.630Z,7.42
2018-01-20T15:33:10.979Z,7.45
2018-01-20T15:38:12.426Z,7.44
2018-01-20T15:43:13.890Z,7.34
2018-01-20T15:48:15.273Z,7.19
2018-01-20T15:53:16.619Z,7.28
2018-01-20T15:58:18.697Z,7.20
2018-01-20T16:03:20.043Z,7.09
2018-01-20T16:08:21.404Z,6.92
2018-01-20T16:13:23.589Z,6.95
2018-01-20T16:18:24.994Z,6.84
2018-01-20T16:23:26.320Z,6.76
2018-01-20T16:28:28.287Z,6.78
2018-01-20T16:33:29.642Z,6.78
2018-01-20T16:38:30.980Z,6.71
2018-01-20T16:43:32.305Z,6.56
2018-01-20T16:48:33.642Z,6.60
2018-01-20T16:53:34.961Z,6.65
2018-01-20T16:58:37.019Z,6.65
2018-01-20T17:03:38.354Z,6.45
2018-01-20T17:08:40.432Z,6.35
2018-01-20T17:13:41.785Z,6.30
2018-01-20T17:18:43.219Z,6.35
2018-01-20T17:23:45.584Z,6.30
2018-01-20T17:28:46.999Z,6.41
2018-01-20T17:33:48.346Z,6.63
2018-01-20T17:38:49.704Z,6.67
2018-01-20T17:43:51.050Z,6.51
2018-01-20T17:48:52.412Z,6.48
2018-01-20T17:53:54.567Z,6.41
2018-01-20T17:58:55.942Z,6.33
2018-01-20T18:03:57.355Z,6.38
2018-01-20T18:08:58.747Z,6.37
2018-01-20T18:14:00.054Z,6.20
2018-01-20T18:19:01.430Z,6.18
2018-01-20T18:24:02.861Z,6.12
2018-01-20T18:29:05.012Z,6.05
2018-01-20T18:34:06.385Z,5.98
2018-01-20T18:39:07.957Z,5.98
2018-01-20T18:44:10.149Z,6.13
2018-01-20T18:49:13.553Z,6.20
2018-01-20T18:54:15.033Z,6.00
2018-01-20T18:59:16.406Z,5.91
2018-01-20T19:04:17.791Z,6.05
2018-01-20T19:09:19.884Z,6.13
2018-01-20T19:14:21.223Z,6.04
2018-01-20T19:19:22.559Z,5.76
2018-01-20T19:24:23.918Z,5.78
2018-01-20T19:29:25.416Z,5.60
2018-01-20T19:34:26.731Z,5.71
2018-01-20T19:39:28.057Z,5.84
2018-01-20T19:44:29.461Z,5.87
2018-01-20T19:49:30.817Z,5.86
2018-01-20T19:54:32.883Z,5.66
2018-01-20T19:59:34.229Z,5.69
2018-01-20T20:04:36.093Z,5.60
2018-01-20T20:09:37.479Z,5.69
2018-01-20T20:14:38.810Z,5.71
2018-01-20T20:19:40.159Z,5.58
2018-01-20T20:24:41.929Z,5.47
2018-01-20T20:29:44.047Z,5.65
2018-01-20T20:34:45.420Z,5.56
2018-01-20T20:39:46.760Z,5.50
2018-01-20T20:44:49.148Z,5.29
2018-01-20T20:49:50.494Z,5.47
2018-01-20T20:54:51.828Z,5.20
2018-01-20T20:59:53.281Z,5.33
2018-01-20T21:04:54.620Z,5.27
2018-01-20T21:09:56.267Z,5.45
2018-01-20T21:14:57.763Z,5.59
2018-01-20T21:19:59.140Z,5.59
2018-01-20T21:25:00.500Z,5.60
2018-01-20T21:30:02.259Z,5.69
2018-01-20T21:35:03.874Z,5.72
2018-01-20T21:40:05.220Z,5.82
2018-01-20T21:45:06.594Z,5.95
2018-01-20T21:50:08.716Z,5.87
2018-01-20T21:55:10.123Z,5.79
2018-01-20T22:00:11.501Z,5.86
2018-01-20T22:05:13.244Z,5.73
2018-01-20T22:10:14.605Z,5.84
2018-01-20T22:15:16.002Z,5.98
2018-01-20T22:20:17.333Z,5.98
2018-01-20T22:25:19.444Z,5.93
2018-01-20T22:30:20.826Z,5.95
2018-01-20T22:35:22.801Z,5.91
2018-01-20T22:40:24.350Z,5.86
2018-01-20T22:45:25.773Z,5.80
2018-01-20T22:50:27.804Z,5.74
2018-01-20T22:55:29.233Z,5.56
2018-01-20T23:00:31.398Z,5.53
2018-01-20T23:05:32.784Z,5.53
2018-01-20T23:10:34.227Z,5.44
2018-01-20T23:15:36.314Z,5.47
2018-01-20T23:20:37.671Z,5.42
2018-01-20T23:25:39.042Z,5.43
2018-01-20T23:30:40.625Z,5.39
2018-01-20T23:35:42.250Z,5.27
2018-01-20T23:40:43.588Z,5.21
2018-01-20T23:45:44.967Z,5.33
2018-01-20T23:50:46.341Z,5.20
2018-01-20T23:55:47.680Z,5.02
